Time;durP1;ratioP1;P1;durP2;ratioP2;P2;SDS_P1;SDS_P2;PMS_P1;PMS_P2;Temp;Humidity;BMP_temperature;BMP_pressure;BME280_temperature;BME280_humidity;BME280_pressure;Samples;Min_cycle;Max_cycle;Signal;HPM_P1;HPM_P2
2023/01/09 00:01:41;;;;;;;8.13;6.05;;;;;;;3.33;98.34;98685.72;5052312;28;20183;-60
2023/01/09 00:04:07;;;;;;;10.80;6.82;;;;;;;3.29;99.75;98728.47;5051983;28;20194;-60
2023/01/09 00:06:33;;;;;;;9.23;6.60;;;;;;;3.17;100.00;98700.75;5052612;28;20231;-61
2023/01/09 00:08:58;;;;;;;9.48;6.57;;;;;;;3.41;99.91;98730.59;5052291;28;20181;-61
2023/01/09 00:11:24;;;;;;;7.85;6.95;;;;;;;3.31;100.00;98719.00;5052056;28;20636;-61
2023/01/09 00:13:49;;;;;;;10.93;7.90;;;;;;;3.36;100.00;98719.69;5052262;28;20252;-60
2023/01/09 00:16:15;;;;;;;10.82;8.05;;;;;;;3.06;100.00;98661.09;5052489;28;20197;-60
2023/01/09 00:18:40;;;;;;;7.32;4.78;;;;;;;3.12;98.42;98666.84;5052155;28;20551;-60
2023/01/09 00:21:08;;;;;;;5.25;4.75;;;;;;;3.41;97.33;98705.00;5052240;28;20651;-60
2023/01/09 00:23:34;;;;;;;5.55;4.00;;;;;;;3.26;97.25;98702.16;5052455;28;20181;-60
2023/01/09 00:26:02;;;;;;;3.42;3.13;;;;;;;3.40;96.57;98718.69;5052451;28;20182;-60
2023/01/09 00:28:28;;;;;;;6.82;4.07;;;;;;;3.07;96.55;98670.44;5052060;28;20182;-60
2023/01/09 00:31:00;;;;;;;4.80;3.58;;;;;;;3.02;95.82;98660.38;5052398;28;20179;-61
2023/01/09 00:33:33;;;;;;;4.30;3.88;;;;;;;2.87;96.16;98644.75;5052571;28;20244;-60
2023/01/09 00:35:58;;;;;;;3.90;3.60;;;;;;;3.23;96.85;98698.00;5051951;28;20197;-60
2023/01/09 00:38:24;;;;;;;3.80;3.30;;;;;;;2.77;97.48;98649.34;5052561;28;20178;-60
2023/01/09 00:40:49;;;;;;;3.92;3.33;;;;;;;2.98;98.20;98683.53;5052320;28;20587;-60
2023/01/09 00:43:16;;;;;;;4.70;3.83;;;;;;;2.78;96.55;98630.56;5052005;28;20185;-60
2023/01/09 00:45:41;;;;;;;4.85;3.72;;;;;;;2.88;96.42;98654.91;5051956;28;20181;-61
2023/01/09 00:48:10;;;;;;;3.88;3.47;;;;;;;2.95;97.08;98656.38;5051918;28;20178;-60
2023/01/09 00:50:36;;;;;;;5.25;3.95;;;;;;;2.97;97.17;98659.69;5051919;28;20176;-60
2023/01/09 00:53:07;;;;;;;5.10;4.60;;;;;;;3.22;97.10;98690.38;5051928;28;20633;-60
2023/01/09 00:55:36;;;;;;;6.50;4.68;;;;;;;3.11;97.27;98652.41;5051608;28;20177;-60
2023/01/09 00:58:01;;;;;;;6.68;4.53;;;;;;;3.12;96.76;98656.63;5051851;28;20766;-60
2023/01/09 01:00:27;;;;;;;4.63;4.20;;;;;;;3.14;97.21;98693.19;5052149;28;20174;-60
2023/01/09 01:02:52;;;;;;;4.88;3.60;;;;;;;3.25;95.78;98680.88;5052421;28;20250;-60
2023/01/09 01:08:02;;;;;;;4.97;4.13;;;;;;;3.13;96.98;98672.78;5052342;28;20220;-60
2023/01/09 01:10:27;;;;;;;4.55;4.03;;;;;;;3.33;96.81;98683.16;5051658;28;20169;-60
2023/01/09 01:12:54;;;;;;;5.93;3.70;;;;;;;3.29;96.19;98674.75;5051735;28;20173;-60
2023/01/09 01:15:20;;;;;;;4.50;4.10;;;;;;;3.15;97.09;98676.94;5051960;28;20209;-60
2023/01/09 01:17:45;;;;;;;5.50;4.60;;;;;;;2.75;95.89;98617.88;5052017;28;20174;-61
2023/01/09 01:20:15;;;;;;;5.63;4.63;;;;;;;3.10;96.18;98680.56;5051734;28;20168;-61
2023/01/09 01:22:41;;;;;;;4.25;3.85;;;;;;;2.95;96.29;98664.03;5053735;28;20174;-61
2023/01/09 01:25:08;;;;;;;4.65;4.05;;;;;;;2.62;95.90;98605.59;5055222;28;20227;-61
2023/01/09 01:27:33;;;;;;;4.70;3.92;;;;;;;2.79;97.29;98650.09;5055711;28;20177;-61
2023/01/09 01:29:59;;;;;;;3.75;3.42;;;;;;;2.44;97.51;98591.72;5055432;28;20170;-61
2023/01/09 01:32:24;;;;;;;4.47;4.07;;;;;;;2.80;97.63;98644.09;5055736;28;20228;-61
2023/01/09 01:34:49;;;;;;;5.65;4.05;;;;;;;2.57;98.43;98598.06;5055053;28;20620;-61
2023/01/09 01:37:15;;;;;;;4.53;3.42;;;;;;;2.61;97.88;98597.09;5054912;28;20198;-61
2023/01/09 01:39:40;;;;;;;4.70;4.18;;;;;;;2.98;97.90;98638.38;5054921;28;20166;-60
2023/01/09 01:42:06;;;;;;;4.75;3.97;;;;;;;3.16;96.99;98652.25;5054883;28;20208;-60
2023/01/09 01:45:00;;;;;;;4.35;3.90;;;;;;;3.06;97.29;98641.50;5054599;28;20260;-61
2023/01/09 01:47:48;;;;;;;5.75;4.25;;;;;;;3.17;96.59;98644.53;5054854;28;20701;-61
2023/01/09 01:50:42;;;;;;;4.18;3.78;;;;;;;3.11;96.54;98638.78;5052574;28;20283;-61
2023/01/09 01:53:13;;;;;;;5.75;4.07;;;;;;;3.11;96.65;98642.19;5052154;28;20584;-61
2023/01/09 01:55:57;;;;;;;7.20;4.22;;;;;;;3.00;96.62;98635.75;5052486;28;20291;-61
2023/01/09 01:58:23;;;;;;;9.95;5.18;;;;;;;2.60;96.50;98572.44;5052563;28;20182;-61
2023/01/09 02:00:48;;;;;;;5.03;4.20;;;;;;;2.52;98.15;98571.84;5052811;28;20185;-61
2023/01/09 02:03:22;;;;;;;7.85;4.25;;;;;;;2.49;96.63;98555.81;5052188;28;20173;-61
2023/01/09 02:05:48;;;;;;;6.43;4.88;;;;;;;2.84;97.23;98620.13;5052738;28;20181;-60
2023/01/09 02:08:13;;;;;;;4.78;4.20;;;;;;;2.80;97.39;98626.22;5052576;28;20186;-61
2023/01/09 02:10:39;;;;;;;4.28;3.88;;;;;;;2.37;97.43;98562.19;5051979;28;20590;-60
2023/01/09 02:13:07;;;;;;;4.30;3.55;;;;;;;2.32;97.81;98551.28;5052063;28;20174;-61
2023/01/09 02:15:50;;;;;;;4.00;3.60;;;;;;;2.47;97.62;98566.09;5051871;28;20547;-61
2023/01/09 02:18:27;;;;;;;4.32;3.92;;;;;;;2.41;98.17;98553.53;5052290;28;20165;-60
2023/01/09 02:21:35;;;;;;;5.07;3.95;;;;;;;2.67;97.97;98596.88;5052319;28;20181;-60
2023/01/09 02:24:21;;;;;;;5.63;3.90;;;;;;;2.82;96.97;98606.59;5011903;28;20194;-60
2023/01/09 02:27:06;;;;;;;4.43;3.90;;;;;;;2.64;96.80;98581.66;5018556;28;20190;-61
2023/01/09 02:30:00;;;;;;;4.93;3.83;;;;;;;2.17;97.38;98513.50;5032259;28;20753;-61
2023/01/09 02:32:51;;;;;;;4.57;3.83;;;;;;;2.61;97.10;98591.97;5032083;28;20252;-60
2023/01/09 02:35:38;;;;;;;3.53;3.22;;;;;;;2.28;97.77;98526.72;5030595;28;20285;-60
2023/01/09 02:38:12;;;;;;;4.30;3.90;;;;;;;2.46;98.59;98573.81;5032236;28;20163;-60
2023/01/09 02:40:49;;;;;;;5.43;4.07;;;;;;;1.95;100.00;98516.81;5031598;28;20192;-61
2023/01/09 02:43:15;;;;;;;4.07;3.70;;;;;;;2.29;100.00;98574.34;5031802;28;20656;-60
2023/01/09 02:45:40;;;;;;;4.80;4.30;;;;;;;2.08;100.00;98518.06;5032300;28;20591;-60
2023/01/09 02:48:09;;;;;;;4.32;3.92;;;;;;;2.10;100.00;98527.34;5031716;28;20273;-61
2023/01/09 02:50:44;;;;;;;4.70;3.92;;;;;;;2.02;99.51;98508.91;5031447;28;20174;-61
2023/01/09 02:53:34;;;;;;;4.32;3.90;;;;;;;2.45;99.82;98580.63;5032025;28;20641;-61
2023/01/09 02:56:02;;;;;;;4.43;3.38;;;;;;;2.40;100.00;98576.56;5031429;28;20238;-61
2023/01/09 02:58:49;;;;;;;4.97;3.75;;;;;;;2.42;100.00;98575.63;5031764;28;20178;-60
2023/01/09 03:01:43;;;;;;;6.60;4.30;;;;;;;2.22;100.00;98574.63;5040741;28;20276;-61
2023/01/09 03:04:11;;;;;;;6.90;4.10;;;;;;;2.34;100.00;98572.47;5053957;28;20169;-61
2023/01/09 03:07:00;;;;;;;4.32;3.92;;;;;;;2.39;100.00;98575.72;5053083;28;20181;-61
2023/01/09 03:09:28;;;;;;;4.55;3.92;;;;;;;2.22;100.00;98537.16;5053891;28;20177;-61
2023/01/09 03:12:05;;;;;;;5.43;4.07;;;;;;;2.56;100.00;98578.53;5053045;28;20654;-61
2023/01/09 03:14:32;;;;;;;6.53;4.97;;;;;;;2.54;100.00;98576.91;5053851;28;20158;-61
2023/01/09 03:17:04;;;;;;;6.18;5.03;;;;;;;2.48;100.00;98585.63;5053054;28;20725;-61
2023/01/09 03:19:31;;;;;;;8.05;5.90;;;;;;;2.46;100.00;98584.81;5053145;28;20170;-61
2023/01/09 03:21:57;;;;;;;6.75;5.18;;;;;;;2.19;100.00;98511.75;5052777;28;20612;-61
2023/01/09 03:24:23;;;;;;;10.57;6.18;;;;;;;2.19;100.00;98508.34;5053012;28;20640;-61
2023/01/09 03:26:49;;;;;;;6.75;5.65;;;;;;;2.49;100.00;98563.47;5053285;28;20177;-61
2023/01/09 03:29:14;;;;;;;7.38;5.82;;;;;;;2.15;100.00;98524.63;5052667;28;20177;-61
2023/01/09 03:31:40;;;;;;;6.95;5.90;;;;;;;2.40;100.00;98584.22;5052805;28;20180;-61
2023/01/09 03:34:05;;;;;;;8.07;5.47;;;;;;;2.43;100.00;98572.19;5052829;28;20249;-61
2023/01/09 03:36:31;;;;;;;10.02;6.03;;;;;;;2.24;100.00;98539.66;5053306;28;20193;-61
2023/01/09 03:38:56;;;;;;;6.95;5.97;;;;;;;1.98;100.00;98506.53;5052746;28;20213;-61
2023/01/09 03:41:22;;;;;;;8.40;6.18;;;;;;;2.33;100.00;98572.56;5052745;28;20182;-61
2023/01/09 03:43:47;;;;;;;7.45;5.22;;;;;;;2.07;100.00;98526.63;5052733;28;20170;-61
2023/01/09 03:46:14;;;;;;;6.97;5.38;;;;;;;2.09;100.00;98519.75;5052650;28;20277;-61
2023/01/09 03:48:39;;;;;;;5.18;4.38;;;;;;;1.99;100.00;98534.53;5052631;28;20235;-61
2023/01/09 03:51:05;;;;;;;5.25;3.83;;;;;;;2.07;100.00;98567.44;5053185;28;20272;-61
2023/01/09 03:53:30;;;;;;;7.55;4.82;;;;;;;1.86;100.00;98505.19;5052548;28;20209;-61
2023/01/09 03:55:56;;;;;;;6.88;4.57;;;;;;;2.01;100.00;98517.47;5052447;28;20316;-61
2023/01/09 03:58:23;;;;;;;4.97;4.47;;;;;;;2.15;100.00;98535.69;5052581;28;20197;-61
2023/01/09 04:00:49;;;;;;;8.07;5.10;;;;;;;2.24;100.00;98549.88;5052186;28;20173;-61
2023/01/09 04:03:16;;;;;;;6.15;5.55;;;;;;;2.28;100.00;98588.00;5052480;28;20201;-60
2023/01/09 04:05:43;;;;;;;8.48;4.93;;;;;;;1.89;100.00;98522.13;5052465;28;20629;-61
2023/01/09 04:08:08;;;;;;;8.50;6.00;;;;;;;1.77;100.00;98510.63;5052418;28;20191;-61
2023/01/09 04:10:34;;;;;;;7.03;5.45;;;;;;;1.96;100.00;98519.31;5052904;28;20609;-61
2023/01/09 04:12:59;;;;;;;7.93;6.22;;;;;;;2.03;100.00;98518.22;5052371;28;20251;-61
2023/01/09 04:15:25;;;;;;;6.47;5.28;;;;;;;2.43;100.00;98577.28;5051917;28;20256;-61
2023/01/09 04:17:50;;;;;;;8.57;6.40;;;;;;;2.00;100.00;98520.06;5052574;28;20173;-61
2023/01/09 04:20:16;;;;;;;9.02;6.43;;;;;;;2.15;100.00;98566.31;5052271;28;20217;-61
2023/01/09 04:22:41;;;;;;;6.90;5.72;;;;;;;1.94;100.00;98572.09;5052290;28;20165;-61
2023/01/09 04:25:07;;;;;;;9.15;6.00;;;;;;;1.72;100.00;98520.13;5052774;28;20185;-61
2023/01/09 04:27:32;;;;;;;8.88;6.70;;;;;;;2.14;100.00;98581.66;5052207;28;20260;-61
2023/01/09 04:29:58;;;;;;;7.70;6.30;;;;;;;2.15;100.00;98579.06;5052254;28;20174;-61
2023/01/09 04:32:23;;;;;;;5.88;4.43;;;;;;;1.84;100.00;98509.53;5052217;28;20498;-61
2023/01/09 04:34:48;;;;;;;6.22;4.68;;;;;;;1.97;100.00;98522.69;5052661;28;20176;-61
2023/01/09 04:37:14;;;;;;;5.60;4.22;;;;;;;2.34;100.00;98577.56;5052023;28;20197;-61
2023/01/09 04:39:42;;;;;;;5.25;4.10;;;;;;;2.20;100.00;98587.44;5052072;28;20188;-61
2023/01/09 04:42:08;;;;;;;6.75;4.68;;;;;;;1.95;100.00;98584.00;5052043;28;20224;-61
2023/01/09 04:44:33;;;;;;;6.72;4.03;;;;;;;2.07;100.00;98582.75;5051782;28;20178;-61
2023/01/09 04:46:58;;;;;;;6.28;5.60;;;;;;;1.92;100.00;98590.91;5052596;28;20242;-61
2023/01/09 04:49:24;;;;;;;7.22;5.45;;;;;;;1.75;100.00;98548.06;5052837;28;20213;-61
2023/01/09 04:51:50;;;;;;;9.48;6.55;;;;;;;1.94;100.00;98596.78;5051993;28;20227;-61
2023/01/09 04:54:16;;;;;;;7.82;6.05;;;;;;;1.99;100.00;98600.84;5052038;28;20185;-61
2023/01/09 04:56:41;;;;;;;7.82;6.30;;;;;;;1.85;100.00;98585.16;5052479;28;20194;-61
2023/01/09 04:59:07;;;;;;;10.98;7.85;;;;;;;1.95;100.00;98606.97;5055802;28;20221;-61
2023/01/09 05:01:33;;;;;;;13.38;8.23;;;;;;;1.15;100.00;98463.28;5055750;28;20197;-61
2023/01/09 05:03:58;;;;;;;13.95;10.07;;;;;;;1.86;100.00;98560.47;5055683;28;20256;-61
2023/01/09 05:06:24;;;;;;;16.25;10.68;;;;;;;2.20;100.00;98596.78;5055640;28;20173;-61
2023/01/09 05:08:49;;;;;;;20.42;15.15;;;;;;;1.51;100.00;98536.06;5055678;28;20685;-61
2023/01/09 05:11:14;;;;;;;30.67;14.25;;;;;;;1.60;100.00;98547.72;5055649;28;20173;-61
2023/01/09 05:13:40;;;;;;;19.38;13.25;;;;;;;1.78;100.00;98559.88;5055286;28;20185;-61
2023/01/09 05:16:06;;;;;;;18.08;11.27;;;;;;;1.42;100.00;98512.59;5055422;28;20553;-61
2023/01/09 05:18:32;;;;;;;12.05;7.55;;;;;;;1.85;100.00;98582.59;5055392;28;20203;-61
2023/01/09 05:20:57;;;;;;;5.80;5.07;;;;;;;1.87;100.00;98574.91;5055363;28;20299;-61
2023/01/09 05:23:23;;;;;;;5.05;3.90;;;;;;;1.54;100.00;98515.59;5055329;28;20177;-61
2023/01/09 05:25:48;;;;;;;3.97;3.58;;;;;;;1.82;100.00;98574.22;5055290;28;20183;-61
2023/01/09 05:28:13;;;;;;;5.13;3.65;;;;;;;1.57;100.00;98545.25;5055322;28;20181;-61
2023/01/09 05:30:39;;;;;;;4.05;3.65;;;;;;;1.69;100.00;98581.41;5055230;28;20170;-60
2023/01/09 05:33:07;;;;;;;6.28;4.65;;;;;;;0.92;100.00;98455.50;5055339;28;20261;-61
2023/01/09 05:35:33;;;;;;;7.22;5.50;;;;;;;1.10;100.00;98482.97;5055033;28;20631;-61
2023/01/09 05:37:58;;;;;;;8.32;6.28;;;;;;;1.67;100.00;98590.84;5055613;28;20188;-61
2023/01/09 05:40:24;;;;;;;9.48;6.95;;;;;;;1.72;100.00;98591.53;5054991;28;20185;-61
2023/01/09 05:42:49;;;;;;;12.38;8.18;;;;;;;1.84;100.00;98585.19;5054934;28;20178;-61
2023/01/09 05:45:15;;;;;;;13.80;8.85;;;;;;;1.89;100.00;98584.19;5055558;28;20257;-61
2023/01/09 05:47:43;;;;;;;11.45;7.82;;;;;;;1.89;100.00;98581.63;5055395;28;20630;-61
2023/01/09 05:50:09;;;;;;;13.80;8.18;;;;;;;1.67;100.00;98551.72;5054881;28;20176;-61
2023/01/09 05:52:34;;;;;;;12.30;8.23;;;;;;;1.34;100.00;98481.41;5055334;28;20186;-61
2023/01/09 05:55:00;;;;;;;10.60;7.03;;;;;;;1.67;100.00;98521.97;5054753;28;20173;-61
2023/01/09 05:57:26;;;;;;;16.73;8.73;;;;;;;1.77;100.00;98542.91;5054659;28;20246;-61
2023/01/09 05:59:51;;;;;;;14.57;8.15;;;;;;;1.77;100.00;98519.97;5054644;28;20169;-61
2023/01/09 06:02:16;;;;;;;5.80;5.30;;;;;;;1.83;100.00;98525.72;5054685;28;20185;-61
2023/01/09 06:04:42;;;;;;;5.55;4.28;;;;;;;2.24;100.00;98589.00;5054629;28;20193;-61
2023/01/09 06:07:08;;;;;;;3.97;3.40;;;;;;;1.67;100.00;98529.63;5055031;28;20178;-61
2023/01/09 06:09:34;;;;;;;8.95;5.07;;;;;;;1.90;100.00;98583.31;5053261;28;20503;-61
2023/01/09 06:11:59;;;;;;;4.68;4.18;;;;;;;1.71;100.00;98554.13;5054667;28;20256;-61
2023/01/09 06:14:24;;;;;;;5.43;4.82;;;;;;;1.67;100.00;98533.88;5054727;28;20525;-61
2023/01/09 06:16:50;;;;;;;7.35;5.03;;;;;;;1.75;100.00;98520.00;5054596;28;20193;-61
2023/01/09 06:19:15;;;;;;;6.45;5.72;;;;;;;1.85;100.00;98525.66;5054312;28;20173;-61
2023/01/09 06:21:40;;;;;;;8.10;6.80;;;;;;;2.01;100.00;98537.03;5054551;28;20178;-61
2023/01/09 06:24:06;;;;;;;10.88;7.82;;;;;;;2.49;100.00;98601.78;5054187;28;20240;-61
2023/01/09 06:26:32;;;;;;;20.40;12.60;;;;;;;2.46;100.00;98582.28;5053847;28;20173;-61
2023/01/09 06:28:59;;;;;;;16.83;11.23;;;;;;;2.70;100.00;98591.66;5054171;28;20189;-61
2023/01/09 06:31:25;;;;;;;15.73;10.48;;;;;;;2.85;100.00;98593.69;5054052;28;20184;-61
2023/01/09 06:33:50;;;;;;;14.05;8.88;;;;;;;2.41;100.00;98494.81;5054493;28;20178;-62
2023/01/09 06:36:16;;;;;;;11.82;8.27;;;;;;;3.15;100.00;98599.44;5053911;28;20194;-61
2023/01/09 06:38:41;;;;;;;11.38;8.25;;;;;;;2.64;100.00;98515.25;5054465;28;20181;-61
2023/01/09 06:41:07;;;;;;;13.40;8.50;;;;;;;2.61;100.00;98501.75;5053930;28;20181;-61
2023/01/09 06:43:32;;;;;;;13.32;8.70;;;;;;;3.00;100.00;98544.59;5053888;28;20170;-61
2023/01/09 06:45:58;;;;;;;9.02;6.93;;;;;;;3.01;97.70;98546.28;5053497;28;20329;-61
2023/01/09 06:48:23;;;;;;;4.80;4.25;;;;;;;2.56;93.00;98490.91;5053444;28;20253;-61
2023/01/09 06:50:50;;;;;;;3.90;3.28;;;;;;;3.31;91.80;98593.72;5053669;28;20181;-61
2023/01/09 06:53:16;;;;;;;4.20;3.63;;;;;;;2.93;90.50;98543.13;5053634;28;20235;-60
2023/01/09 06:55:41;;;;;;;4.65;4.25;;;;;;;3.31;90.89;98600.53;5053520;28;20256;-60
2023/01/09 06:58:06;;;;;;;5.03;4.28;;;;;;;2.94;89.17;98519.28;5053567;28;20181;-60
2023/01/09 07:00:32;;;;;;;5.57;3.75;;;;;;;2.64;89.46;98484.59;5054312;28;20261;-60
2023/01/09 07:02:57;;;;;;;5.03;3.95;;;;;;;3.17;90.43;98572.94;5053493;28;20243;-60
2023/01/09 07:05:23;;;;;;;4.10;3.70;;;;;;;3.40;89.90;98602.78;5053381;28;20685;-60
2023/01/09 07:07:48;;;;;;;4.45;3.78;;;;;;;3.15;90.13;98569.59;5053030;28;20170;-60
2023/01/09 07:10:14;;;;;;;4.55;3.90;;;;;;;3.30;89.47;98599.72;5033389;28;20174;-60
2023/01/09 07:12:39;;;;;;;4.35;4.00;;;;;;;2.96;89.41;98532.81;5033368;28;20166;-60
2023/01/09 07:15:05;;;;;;;4.55;3.83;;;;;;;2.99;88.76;98532.69;5033369;28;20254;-60
2023/01/09 07:17:31;;;;;;;4.38;3.97;;;;;;;3.50;88.35;98599.00;5033145;28;20194;-60
2023/01/09 07:19:57;;;;;;;4.15;3.75;;;;;;;3.13;88.04;98525.38;5032881;28;20194;-61
2023/01/09 07:22:22;;;;;;;4.32;3.92;;;;;;;3.58;87.59;98574.78;5033467;28;20166;-60
2023/01/09 07:24:48;;;;;;;4.82;4.30;;;;;;;3.15;87.61;98492.09;5033481;28;20178;-60
2023/01/09 07:27:13;;;;;;;4.00;3.55;;;;;;;3.32;87.20;98536.56;5033360;28;20620;-60
2023/01/09 07:29:39;;;;;;;3.95;3.58;;;;;;;3.68;87.08;98576.09;5033140;28;20177;-60
2023/01/09 07:32:04;;;;;;;4.63;3.58;;;;;;;3.50;86.61;98528.19;5032907;28;20202;-60
2023/01/09 07:34:29;;;;;;;6.03;4.00;;;;;;;3.29;85.97;98493.22;5033302;28;20178;-60
2023/01/09 07:36:55;;;;;;;4.53;3.90;;;;;;;3.59;85.62;98509.94;5032917;28;20198;-60
2023/01/09 07:39:20;;;;;;;6.05;5.05;;;;;;;3.95;86.04;98580.13;5033210;28;20254;-61
2023/01/09 07:41:46;;;;;;;8.38;5.60;;;;;;;3.80;86.80;98526.97;5014466;28;20182;-60
2023/01/09 07:44:12;;;;;;;7.70;5.63;;;;;;;3.61;86.52;98474.06;5032785;28;20182;-61
2023/01/09 07:46:37;;;;;;;9.75;5.70;;;;;;;4.22;84.93;98566.25;5032725;28;20583;-60
2023/01/09 07:49:03;;;;;;;7.38;5.55;;;;;;;4.27;84.39;98571.97;5032769;28;20174;-60
2023/01/09 07:51:28;;;;;;;7.97;5.25;;;;;;;3.77;84.46;98472.53;5032415;28;20700;-61
2023/01/09 07:53:54;;;;;;;8.77;5.53;;;;;;;4.32;84.89;98557.25;5032685;28;20174;-60
2023/01/09 07:56:19;;;;;;;9.25;5.68;;;;;;;4.21;84.59;98520.19;5032281;28;20198;-61
2023/01/09 07:58:45;;;;;;;7.10;5.63;;;;;;;4.69;82.94;98575.34;5032681;28;20541;-61
2023/01/09 08:01:10;;;;;;;9.25;5.30;;;;;;;4.39;82.50;98520.28;5032928;28;20227;-61
2023/01/09 08:03:35;;;;;;;9.77;5.93;;;;;;;4.41;82.04;98508.22;5032223;28;20656;-61
2023/01/09 08:06:01;;;;;;;8.13;6.13;;;;;;;4.86;81.83;98570.34;5032487;28;20185;-61
2023/01/09 08:08:26;;;;;;;11.07;6.68;;;;;;;4.53;82.14;98517.09;5032738;28;20587;-61
2023/01/09 08:10:52;;;;;;;8.98;6.90;;;;;;;4.83;82.50;98567.88;5032700;28;20240;-60
2023/01/09 08:13:17;;;;;;;7.82;6.53;;;;;;;4.91;82.95;98570.94;5032728;28;20174;-61
2023/01/09 08:15:43;;;;;;;12.95;6.78;;;;;;;4.31;83.84;98468.53;5032065;28;20253;-61
2023/01/09 08:18:08;;;;;;;16.77;8.52;;;;;;;4.67;83.15;98525.06;5030154;28;20256;-61
2023/01/09 08:20:33;;;;;;;16.92;8.80;;;;;;;4.99;83.41;98557.78;5041324;28;20223;-59
2023/01/09 08:22:59;;;;;;;17.25;9.38;;;;;;;5.07;83.78;98566.00;5049981;28;20251;-60
2023/01/09 08:25:24;;;;;;;17.90;10.02;;;;;;;4.79;83.55;98502.25;5049516;28;20209;-60
2023/01/09 08:27:50;;;;;;;18.08;11.95;;;;;;;5.35;83.11;98569.81;5050149;28;20561;-60
2023/01/09 08:30:16;;;;;;;18.63;11.77;;;;;;;5.18;83.03;98518.44;5050067;28;20746;-60
2023/01/09 08:32:42;;;;;;;30.65;16.60;;;;;;;5.58;83.30;98573.88;5052580;28;20588;-60
2023/01/09 08:35:08;;;;;;;18.30;12.60;;;;;;;5.64;83.15;98563.34;5053869;28;20181;-60
2023/01/09 08:37:34;;;;;;;20.02;12.63;;;;;;;5.66;83.41;98567.50;5053747;28;20243;-60
2023/01/09 08:40:00;;;;;;;24.33;15.75;;;;;;;5.57;83.71;98529.44;5053763;28;20189;-60
2023/01/09 08:47:54;;;;;;;97.07;53.53;;;;;;;5.88;86.07;98516.03;5054296;28;20215;-60
2023/01/09 08:50:20;;;;;;;49.38;28.45;;;;;;;6.11;87.45;98531.97;5053711;28;20178;-60
2023/01/09 08:52:45;;;;;;;49.90;24.95;;;;;;;6.24;87.66;98550.19;5053628;28;20180;-60
2023/01/09 08:55:11;;;;;;;56.97;25.25;;;;;;;5.98;87.86;98507.81;5054331;28;20214;-60
2023/01/09 08:57:36;;;;;;;49.53;23.65;;;;;;;6.32;87.67;98554.06;5055768;28;20721;-60
2023/01/09 09:00:03;;;;;;;43.38;24.48;;;;;;;6.33;87.48;98547.16;5055849;28;20170;-60
2023/01/09 09:02:28;;;;;;;48.83;24.77;;;;;;;6.09;87.62;98499.56;5056318;28;20177;-60
2023/01/09 09:04:55;;;;;;;49.67;24.02;;;;;;;5.86;87.16;98456.19;5055994;28;20192;-60
2023/01/09 09:07:29;;;;;;;38.55;23.23;;;;;;;6.38;87.13;98540.06;5053413;28;20236;-60
2023/01/09 09:09:55;;;;;;;34.67;20.83;;;;;;;6.37;85.76;98539.25;5053179;28;20181;-60
2023/01/09 09:12:21;;;;;;;42.90;21.67;;;;;;;6.37;85.94;98539.25;5053448;28;20585;-60
2023/01/09 09:17:31;;;;;;;49.92;25.00;;;;;;;6.05;85.70;98487.78;5053480;28;20647;-60
2023/01/09 09:19:57;;;;;;;46.88;25.27;;;;;;;6.36;85.91;98540.13;5053084;28;20170;-60
2023/01/09 09:22:22;;;;;;;42.58;21.83;;;;;;;6.13;85.80;98493.38;5053482;28;20182;-60
2023/01/09 09:24:48;;;;;;;36.80;20.83;;;;;;;6.35;85.30;98532.53;5053221;28;20268;-60
2023/01/09 09:27:13;;;;;;;36.08;21.33;;;;;;;6.15;85.30;98494.97;5052882;28;20194;-60
2023/01/09 09:29:38;;;;;;;40.25;19.67;;;;;;;6.39;85.52;98539.16;5053250;28;20231;-60
2023/01/09 09:32:04;;;;;;;42.38;22.60;;;;;;;5.87;86.33;98506.63;5052780;28;20198;-60
2023/01/09 09:34:29;;;;;;;34.53;21.85;;;;;;;5.94;87.05;98519.13;5052777;28;20260;-60
2023/01/09 09:36:55;;;;;;;43.58;22.83;;;;;;;5.90;86.91;98524.47;5052639;28;20208;-60
2023/01/09 09:39:20;;;;;;;38.60;23.50;;;;;;;5.79;87.89;98517.28;5054842;28;20174;-60
2023/01/09 09:45:22;;;;;;;41.83;24.63;;;;;;;5.89;88.54;98518.50;5055018;28;20223;-60
2023/01/09 09:48:06;;;;;;;44.25;27.15;;;;;;;6.04;87.88;98520.34;5054917;28;20181;-60
2023/01/09 09:50:55;;;;;;;46.55;28.17;;;;;;;5.96;87.95;98507.06;5054893;28;20166;-60
2023/01/09 09:53:28;;;;;;;48.35;28.23;;;;;;;5.98;88.83;98510.38;5054828;28;20177;-60
2023/01/09 09:55:56;;;;;;;50.35;28.52;;;;;;;5.63;89.14;98439.34;5054718;28;20609;-60
2023/01/09 09:58:55;;;;;;;52.13;28.63;;;;;;;5.91;89.58;98467.09;5054668;28;20174;-60
2023/01/09 10:01:26;;;;;;;54.58;29.02;;;;;;;6.25;88.93;98505.63;5054971;28;20169;-60
2023/01/09 10:03:55;;;;;;;48.80;29.23;;;;;;;5.82;88.41;98434.97;5054769;28;20542;-60
2023/01/09 10:06:28;;;;;;;52.42;32.25;;;;;;;6.30;89.11;98503.66;5054579;28;20268;-60
2023/01/09 10:09:07;;;;;;;53.55;29.85;;;;;;;6.36;88.60;98496.44;5054544;28;20715;-60
2023/01/09 10:11:42;;;;;;;49.08;27.08;;;;;;;5.94;88.13;98439.50;5055051;28;20223;-61
2023/01/09 10:14:10;;;;;;;66.10;32.33;;;;;;;5.82;88.83;98432.41;5054795;28;20635;-60
2023/01/09 10:16:50;;;;;;;52.47;27.73;;;;;;;6.05;88.27;98454.38;5054223;28;20200;-60
2023/01/09 10:19:24;;;;;;;43.50;25.38;;;;;;;6.21;87.47;98465.56;5054660;28;20169;-60
2023/01/09 10:21:59;;;;;;;44.80;25.83;;;;;;;6.42;88.15;98503.03;5054329;28;20169;-60
2023/01/09 10:24:53;;;;;;;47.65;26.38;;;;;;;6.52;87.91;98493.97;5054184;28;20264;-60
2023/01/09 10:27:36;;;;;;;41.85;25.42;;;;;;;6.65;88.31;98493.22;5054989;28;20173;-60
2023/01/09 10:30:07;;;;;;;44.85;27.08;;;;;;;6.35;88.53;98427.97;5054132;28;20671;-60
2023/01/09 10:32:40;;;;;;;43.17;27.10;;;;;;;6.77;88.24;98479.72;5054131;28;20193;-60
2023/01/09 10:35:20;;;;;;;49.33;27.45;;;;;;;6.85;87.44;98481.91;5053888;28;20562;-61
2023/01/09 10:37:51;;;;;;;45.22;26.67;;;;;;;6.81;87.06;98455.53;5053630;28;20200;-60
2023/01/09 10:40:17;;;;;;;41.40;24.48;;;;;;;7.04;86.80;98478.28;5054265;28;20603;-60
2023/01/09 10:42:47;;;;;;;47.55;23.85;;;;;;;6.82;86.32;98423.75;5052160;28;20169;-60
2023/01/09 10:45:12;;;;;;;41.90;23.70;;;;;;;7.17;85.86;98481.84;5054086;28;20224;-60
2023/01/09 10:47:39;;;;;;;40.67;22.40;;;;;;;6.76;84.51;98411.22;5054106;28;20205;-60
2023/01/09 10:50:18;;;;;;;65.63;30.77;;;;;;;6.94;86.27;98460.88;5053049;28;20272;-60
2023/01/09 10:52:45;;;;;;;47.28;25.60;;;;;;;7.08;86.88;98458.38;5053274;28;20174;-60
2023/01/09 10:55:18;;;;;;;45.50;23.58;;;;;;;7.05;86.46;98419.97;5052965;28;20185;-60
2023/01/09 10:57:48;;;;;;;54.97;26.88;;;;;;;7.56;86.23;98461.66;5053872;28;20247;-61
2023/01/09 11:00:19;;;;;;;65.15;28.70;;;;;;;7.39;85.75;98410.28;5053315;28;20245;-60
2023/01/09 11:02:45;;;;;;;58.90;29.40;;;;;;;7.79;85.25;98447.50;5054361;28;20174;-60
2023/01/09 11:05:18;;;;;;;72.30;31.63;;;;;;;7.33;85.17;98356.59;5053472;28;20272;-60
2023/01/09 11:07:48;;;;;;;79.93;35.78;;;;;;;8.08;84.80;98455.22;5031829;28;20598;-60
2023/01/09 11:10:14;;;;;;;79.65;34.05;;;;;;;7.65;84.90;98358.19;5031333;28;20186;-60
2023/01/09 11:12:40;;;;;;;75.68;33.13;;;;;;;8.25;85.56;98455.13;5031255;28;20625;-60
2023/01/09 11:15:14;;;;;;;85.57;35.15;;;;;;;8.27;85.38;98449.88;5030974;28;20276;-60
2023/01/09 11:17:41;;;;;;;99.25;35.45;;;;;;;8.20;86.00;98439.09;5030837;28;20241;-60
2023/01/09 11:20:18;;;;;;;84.30;34.88;;;;;;;8.06;87.30;98454.50;5030911;28;20633;-60
2023/01/09 11:22:49;;;;;;;87.32;35.10;;;;;;;7.91;88.26;98447.63;5030656;28;20193;-60
2023/01/09 11:25:19;;;;;;;83.28;33.45;;;;;;;7.61;89.07;98392.72;5030747;28;20269;-60
2023/01/09 11:28:05;;;;;;;80.10;31.05;;;;;;;7.96;90.63;98455.09;5028397;28;20185;-60
2023/01/09 11:30:35;;;;;;;81.20;33.13;;;;;;;7.62;91.23;98398.69;5031575;28;20259;-61
2023/01/09 11:33:13;;;;;;;83.40;32.55;;;;;;;7.52;92.01;98385.53;5030566;28;20210;-60
2023/01/09 11:35:53;;;;;;;91.55;35.05;;;;;;;7.47;93.37;98395.25;5029599;28;20637;-60
2023/01/09 11:38:19;;;;;;;93.05;35.83;;;;;;;7.26;94.22;98373.28;5038330;28;20539;-60
2023/01/09 11:41:05;;;;;;;86.10;34.80;;;;;;;7.44;94.90;98420.31;5052670;28;20170;-60
2023/01/09 11:43:38;;;;;;;90.05;35.25;;;;;;;7.28;96.32;98410.06;5053039;28;20162;-60
2023/01/09 11:46:10;;;;;;;93.40;32.25;;;;;;;6.89;96.43;98329.97;5052920;28;20208;-60
2023/01/09 11:48:40;;;;;;;129.13;43.25;;;;;;;7.44;97.19;98407.47;5052532;28;20160;-60
2023/01/09 11:51:27;;;;;;;103.63;37.55;;;;;;;7.35;97.71;98401.06;5052624;28;20178;-60
2023/01/09 11:54:21;;;;;;;91.35;33.30;;;;;;;7.35;98.14;98395.94;5052959;28;20164;-60